Time;durP1;ratioP1;P1;durP2;ratioP2;P2;SDS_P1;SDS_P2;PMS_P1;PMS_P2;Temp;Humidity;BMP_temperature;BMP_pressure;BME280_temperature;BME280_humidity;BME280_pressure;Samples;Min_cycle;Max_cycle;Signal;HPM_P1;HPM_P2
2021/10/28 00:12:35;;;;;;;38.97;23.48;;;8.70;99.90;;;;;;4130871;28;20125;-75
2021/10/28 00:14:37;;;;;;;41.95;24.42;;;8.70;99.90;;;;;;4131357;28;20041;-75
2021/10/28 00:16:38;;;;;;;45.72;23.92;;;8.70;99.90;;;;;;4131388;28;20490;-75
2021/10/28 00:18:41;;;;;;;42.85;26.08;;;8.70;99.90;;;;;;4131472;28;20033;-74
2021/10/28 00:20:42;;;;;;;46.47;25.77;;;8.70;99.90;;;;;;4129722;28;20680;-74
2021/10/28 00:22:42;;;;;;;45.88;25.85;;;8.70;99.90;;;;;;4123732;28;20034;-75
2021/10/28 00:24:43;;;;;;;46.38;24.65;;;8.70;99.90;;;;;;4129339;28;20172;-75
2021/10/28 00:26:46;;;;;;;48.88;25.63;;;8.70;99.90;;;;;;4129863;28;20029;-75
2021/10/28 00:28:47;;;;;;;53.03;25.75;;;8.70;99.90;;;;;;4129403;28;20303;-74
2021/10/28 00:30:47;;;;;;;47.47;24.98;;;8.60;99.90;;;;;;4129521;28;20038;-74
2021/10/28 00:32:48;;;;;;;43.47;24.73;;;8.60;99.90;;;;;;4130479;28;20072;-74
2021/10/28 00:34:49;;;;;;;46.13;24.83;;;8.50;99.90;;;;;;4130899;28;20054;-74
2021/10/28 00:36:50;;;;;;;47.15;24.75;;;8.50;99.90;;;;;;4130350;28;20150;-74
2021/10/28 00:38:51;;;;;;;41.33;24.10;;;8.50;99.90;;;;;;4129346;28;20038;-74
2021/10/28 00:40:52;;;;;;;52.55;26.55;;;8.50;99.90;;;;;;4126534;28;20050;-74
2021/10/28 00:42:55;;;;;;;45.95;25.08;;;8.50;99.90;;;;;;4126655;28;20038;-74
2021/10/28 00:44:55;;;;;;;49.83;25.25;;;8.50;99.90;;;;;;4129316;28;20093;-74
2021/10/28 00:46:56;;;;;;;47.88;26.25;;;8.60;99.90;;;;;;4129941;28;20042;-75
2021/10/28 00:49:02;;;;;;;49.80;26.95;;;8.50;99.90;;;;;;4129534;28;20378;-75
2021/10/28 00:51:06;;;;;;;52.10;25.77;;;8.50;99.90;;;;;;4129876;28;20042;-75
2021/10/28 00:53:07;;;;;;;49.92;27.38;;;8.50;99.90;;;;;;4128462;28;20054;-75
2021/10/28 00:55:09;;;;;;;52.42;26.50;;;8.50;99.90;;;;;;4127033;28;20030;-75
2021/10/28 00:57:10;;;;;;;52.15;26.27;;;8.50;99.90;;;;;;4129206;28;20067;-75
2021/10/28 00:59:11;;;;;;;48.00;26.13;;;8.50;99.90;;;;;;4127718;28;20134;-74
2021/10/28 01:01:12;;;;;;;48.55;26.42;;;8.50;99.90;;;;;;4114692;28;20031;-75
2021/10/28 01:03:13;;;;;;;47.55;25.60;;;8.40;99.90;;;;;;4125672;28;20034;-75
2021/10/28 01:05:14;;;;;;;49.25;26.23;;;8.40;99.90;;;;;;4129424;28;20034;-75
2021/10/28 01:07:15;;;;;;;52.08;28.13;;;8.40;99.90;;;;;;4127303;28;20540;-75
2021/10/28 01:09:15;;;;;;;49.83;28.13;;;8.40;99.90;;;;;;4113317;28;20043;-75
2021/10/28 01:11:16;;;;;;;45.75;26.00;;;8.40;99.90;;;;;;4127297;28;20034;-75
2021/10/28 01:13:19;;;;;;;50.70;27.23;;;8.40;99.90;;;;;;4140318;28;20042;-74
2021/10/28 01:15:20;;;;;;;;;;;8.40;99.90;;;;;;4125215;28;20046;-74
2021/10/28 01:17:22;;;;;;;54.05;25.10;;;8.30;99.90;;;;;;4129379;28;19925;-74
2021/10/28 01:19:23;;;;;;;49.00;26.67;;;8.40;99.90;;;;;;4126481;28;20030;-74
2021/10/28 01:21:25;;;;;;;51.60;25.52;;;8.40;99.90;;;;;;4122610;28;20045;-74
2021/10/28 01:23:26;;;;;;;59.53;27.90;;;8.40;99.90;;;;;;4129915;28;20041;-74
2021/10/28 01:25:27;;;;;;;52.00;27.67;;;8.30;99.90;;;;;;4130038;28;20038;-74
2021/10/28 01:27:28;;;;;;;53.95;26.65;;;8.30;99.90;;;;;;4125309;28;20035;-74
2021/10/28 01:29:29;;;;;;;47.80;26.02;;;8.30;99.90;;;;;;4130903;28;20082;-74
2021/10/28 01:31:32;;;;;;;50.17;27.35;;;8.30;99.90;;;;;;4121815;28;20031;-74
2021/10/28 01:33:34;;;;;;;56.08;27.45;;;8.30;99.90;;;;;;4120495;28;20041;-75
2021/10/28 01:35:34;;;;;;;54.78;28.00;;;8.20;99.90;;;;;;4129066;28;20034;-75
2021/10/28 01:37:41;;;;;;;55.60;28.13;;;8.20;99.90;;;;;;4129957;28;20038;-75
2021/10/28 01:39:41;;;;;;;52.65;27.92;;;8.20;99.90;;;;;;4140386;28;20029;-75
2021/10/28 01:41:42;;;;;;;52.03;27.30;;;8.20;99.90;;;;;;4134660;28;20034;-75
2021/10/28 01:43:43;;;;;;;60.55;29.27;;;8.10;99.90;;;;;;4130574;28;20055;-74
2021/10/28 01:45:44;;;;;;;49.33;28.02;;;8.10;99.90;;;;;;4128831;28;20066;-75
2021/10/28 01:47:45;;;;;;;51.42;26.75;;;8.10;99.90;;;;;;4114581;28;20031;-76
2021/10/28 01:49:46;;;;;;;53.30;28.02;;;8.10;99.90;;;;;;4125936;28;20101;-75
2021/10/28 01:51:46;;;;;;;61.42;28.38;;;8.00;99.90;;;;;;4130333;28;20042;-75
2021/10/28 01:53:47;;;;;;;50.80;27.85;;;8.10;99.90;;;;;;4128024;28;20507;-75
2021/10/28 01:55:48;;;;;;;56.78;27.92;;;8.10;99.90;;;;;;4129760;28;20035;-73
2021/10/28 01:57:49;;;;;;;56.80;28.73;;;8.10;99.90;;;;;;4126818;28;20495;-75
2021/10/28 01:59:50;;;;;;;52.33;27.42;;;8.10;99.90;;;;;;4128441;28;20053;-75
2021/10/28 02:01:51;;;;;;;54.83;27.45;;;8.00;99.90;;;;;;4128473;28;20066;-75
2021/10/28 02:03:51;;;;;;;57.03;28.52;;;8.10;99.90;;;;;;4126934;28;20031;-75
2021/10/28 02:05:53;;;;;;;50.42;26.45;;;8.00;99.90;;;;;;4129283;28;20038;-75
2021/10/28 02:07:54;;;;;;;56.90;26.83;;;8.10;99.90;;;;;;4129053;28;20030;-75
2021/10/28 02:09:54;;;;;;;51.47;28.20;;;8.10;99.90;;;;;;4127178;28;20144;-75
2021/10/28 02:11:55;;;;;;;60.47;27.58;;;8.10;99.90;;;;;;4129246;28;20129;-75
2021/10/28 02:13:59;;;;;;;57.08;27.35;;;8.10;99.90;;;;;;4129458;28;20062;-75
2021/10/28 02:15:59;;;;;;;54.25;27.55;;;8.10;99.90;;;;;;4128814;28;20486;-75
2021/10/28 02:18:00;;;;;;;52.65;27.85;;;8.10;99.90;;;;;;4124739;28;20162;-75
2021/10/28 02:20:02;;;;;;;51.85;25.25;;;8.10;99.90;;;;;;4127687;28;20089;-75
2021/10/28 02:22:02;;;;;;;57.30;25.80;;;8.10;99.90;;;;;;4131078;28;20034;-75
2021/10/28 02:24:03;;;;;;;47.28;26.75;;;8.10;99.90;;;;;;4131774;28;20050;-76
2021/10/28 02:26:04;;;;;;;49.40;25.58;;;8.00;99.90;;;;;;4143524;28;20037;-75
2021/10/28 02:28:05;;;;;;;49.00;25.48;;;8.00;99.90;;;;;;4129850;28;20513;-75
2021/10/28 02:30:07;;;;;;;45.75;22.20;;;8.00;99.90;;;;;;4131626;28;20034;-76
2021/10/28 02:32:09;;;;;;;49.53;26.98;;;8.00;99.90;;;;;;4131353;28;20022;-75
2021/10/28 02:34:10;;;;;;;56.28;26.90;;;8.10;99.90;;;;;;4132640;28;20050;-75
2021/10/28 02:36:12;;;;;;;47.47;25.00;;;8.00;99.90;;;;;;4131637;28;20034;-75
2021/10/28 02:38:12;;;;;;;49.15;25.52;;;7.90;99.90;;;;;;4118310;28;20146;-75
2021/10/28 02:40:14;;;;;;;49.10;25.08;;;7.90;99.90;;;;;;4132310;28;20097;-75
2021/10/28 02:42:15;;;;;;;51.20;25.65;;;7.80;99.90;;;;;;4122864;28;20018;-75
2021/10/28 02:44:16;;;;;;;53.95;25.25;;;7.70;99.90;;;;;;4126473;28;20027;-75
2021/10/28 02:46:17;;;;;;;46.58;24.02;;;7.70;99.90;;;;;;4128092;28;20435;-75
2021/10/28 02:48:17;;;;;;;52.10;24.92;;;7.80;99.90;;;;;;4127891;28;20045;-75
2021/10/28 02:50:19;;;;;;;45.88;24.52;;;7.70;99.90;;;;;;4120318;28;20045;-75
2021/10/28 02:52:19;;;;;;;49.90;24.48;;;7.70;99.90;;;;;;4131948;28;20477;-75
2021/10/28 02:54:22;;;;;;;47.75;24.42;;;7.70;99.90;;;;;;4132266;28;20034;-75
2021/10/28 02:56:23;;;;;;;49.13;25.17;;;7.70;99.90;;;;;;4132308;28;20038;-75
2021/10/28 02:58:23;;;;;;;52.42;25.08;;;7.80;99.90;;;;;;4133075;28;20084;-75
2021/10/28 03:00:24;;;;;;;48.70;25.08;;;7.80;99.90;;;;;;4129094;28;20449;-75
2021/10/28 03:02:24;;;;;;;49.50;25.13;;;7.80;99.90;;;;;;4131303;28;20045;-75
2021/10/28 03:04:25;;;;;;;58.92;26.90;;;7.70;99.90;;;;;;4124019;28;20097;-75
2021/10/28 03:06:26;;;;;;;51.17;24.35;;;7.70;99.90;;;;;;4125526;28;20430;-75
2021/10/28 03:08:29;;;;;;;50.92;26.67;;;7.70;99.90;;;;;;4122112;28;20065;-75
2021/10/28 03:10:29;;;;;;;48.88;24.58;;;7.70;99.90;;;;;;4123727;28;20081;-75
2021/10/28 03:12:31;;;;;;;50.92;23.77;;;7.70;99.90;;;;;;4130818;28;20145;-76
2021/10/28 03:14:45;;;;;;;52.38;23.75;;;7.70;99.90;;;;;;4132750;28;20137;-76
2021/10/28 03:16:53;;;;;;;46.95;24.95;;;7.70;99.90;;;;;;4124592;28;20042;-75
2021/10/28 03:19:08;;;;;;;48.63;24.08;;;7.70;99.90;;;;;;4131061;28;20034;-75
2021/10/28 03:25:47;;;;;;;46.83;23.55;;;7.50;99.90;;;;;;4123829;28;20088;-75
2021/10/28 03:27:48;;;;;;;54.08;23.85;;;7.40;99.90;;;;;;4130643;28;20494;-75
2021/10/28 03:29:48;;;;;;;47.42;23.58;;;7.40;99.90;;;;;;4130922;28;20124;-75
2021/10/28 03:31:49;;;;;;;52.83;24.13;;;7.40;99.90;;;;;;4126541;28;20188;-75
2021/10/28 03:33:50;;;;;;;54.83;25.23;;;7.40;99.90;;;;;;4132219;28;20084;-75
2021/10/28 03:35:52;;;;;;;52.45;24.45;;;7.40;99.90;;;;;;4130983;28;20332;-75
2021/10/28 03:37:55;;;;;;;52.75;25.75;;;7.40;99.90;;;;;;4130590;28;20042;-75
2021/10/28 03:42:26;;;;;;;59.20;27.23;;;7.30;99.90;;;;;;4129766;28;20132;-75
2021/10/28 03:46:39;;;;;;;53.67;26.67;;;7.40;99.90;;;;;;4131661;28;20034;-75
2021/10/28 04:00:19;;;;;;;50.10;24.73;;;7.30;99.90;;;;;;4116519;28;20035;-75
2021/10/28 04:18:32;;;;;;;50.05;24.55;;;7.30;99.90;;;;;;4128808;28;20041;-75
2021/10/28 04:29:29;;;;;;;56.45;25.23;;;7.00;99.90;;;;;;4112986;28;20050;-75
2021/10/28 04:31:39;;;;;;;50.83;26.33;;;7.00;99.90;;;;;;4126967;28;20042;-76
2021/10/28 04:33:42;;;;;;;54.65;26.70;;;7.00;99.90;;;;;;4129429;28;20103;-75
2021/10/28 04:35:44;;;;;;;50.28;25.88;;;7.00;99.90;;;;;;4130840;28;20049;-75
2021/10/28 04:37:46;;;;;;;58.33;27.25;;;6.90;99.90;;;;;;4127969;28;20030;-74
2021/10/28 04:39:47;;;;;;;53.17;28.05;;;6.90;99.90;;;;;;4130005;28;20173;-75
2021/10/28 04:41:47;;;;;;;49.42;27.50;;;6.90;99.90;;;;;;4120079;28;20039;-76
2021/10/28 04:43:48;;;;;;;53.10;27.98;;;6.90;99.90;;;;;;4121956;28;21086;-75
2021/10/28 04:45:49;;;;;;;55.13;28.27;;;6.90;99.90;;;;;;4118661;28;20039;-75
2021/10/28 04:47:49;;;;;;;60.88;30.10;;;6.90;99.90;;;;;;4138707;28;20140;-76
2021/10/28 04:49:51;;;;;;;62.42;29.70;;;6.90;99.90;;;;;;4129545;28;20560;-76
2021/10/28 04:51:52;;;;;;;62.28;29.13;;;6.80;99.90;;;;;;4128022;28;20038;-76
2021/10/28 04:53:53;;;;;;;60.35;30.10;;;6.90;99.90;;;;;;4130870;28;20092;-76
2021/10/28 04:55:54;;;;;;;66.63;32.17;;;6.80;99.90;;;;;;4128546;28;20121;-76
2021/10/28 04:57:54;;;;;;;65.13;31.05;;;6.80;99.90;;;;;;4130871;28;20034;-75
2021/10/28 04:59:55;;;;;;;66.50;33.08;;;6.80;99.90;;;;;;4128720;28;20077;-75
2021/10/28 05:01:57;;;;;;;69.93;32.45;;;6.80;99.90;;;;;;4113057;28;20132;-75
2021/10/28 05:03:58;;;;;;;65.80;33.78;;;6.70;99.90;;;;;;4126810;28;20036;-76
2021/10/28 05:05:58;;;;;;;67.07;33.78;;;6.70;99.90;;;;;;4130086;28;20043;-75
2021/10/28 05:07:59;;;;;;;70.47;34.47;;;6.80;99.90;;;;;;4128457;28;20041;-75
2021/10/28 05:10:00;;;;;;;78.22;37.58;;;6.80;99.90;;;;;;4126226;28;20123;-75
2021/10/28 05:12:00;;;;;;;77.85;36.38;;;6.90;99.90;;;;;;4126794;28;20114;-75
2021/10/28 05:14:01;;;;;;;76.68;37.85;;;6.90;99.90;;;;;;4125058;28;20089;-74
2021/10/28 05:16:02;;;;;;;81.85;37.67;;;6.90;99.90;;;;;;4126449;28;20035;-75
2021/10/28 05:18:02;;;;;;;68.30;36.97;;;6.90;99.90;;;;;;4119092;28;20050;-75
2021/10/28 05:20:04;;;;;;;81.78;36.67;;;6.90;99.90;;;;;;4121198;28;20505;-75
2021/10/28 05:22:06;;;;;;;75.97;33.53;;;6.90;99.90;;;;;;4118440;28;20022;-76
2021/10/28 05:24:08;;;;;;;76.40;37.78;;;6.90;99.90;;;;;;4122080;28;20438;-76
2021/10/28 05:26:09;;;;;;;74.93;35.58;;;6.80;99.90;;;;;;4116902;28;20069;-75
2021/10/28 05:28:10;;;;;;;67.13;33.35;;;6.80;99.90;;;;;;4116852;28;20043;-75
2021/10/28 05:30:14;;;;;;;72.80;34.20;;;6.80;99.90;;;;;;4123726;28;20117;-75
2021/10/28 05:32:14;;;;;;;71.03;35.05;;;6.80;99.90;;;;;;4124115;28;20145;-76
2021/10/28 05:34:15;;;;;;;76.90;35.30;;;6.80;99.90;;;;;;4121004;28;20391;-76
2021/10/28 05:36:16;;;;;;;77.10;33.70;;;6.90;99.90;;;;;;4117134;28;20434;-75
2021/10/28 05:38:18;;;;;;;74.45;32.75;;;6.90;99.90;;;;;;4124511;28;20026;-75
2021/10/28 05:40:19;;;;;;;70.10;34.45;;;6.90;99.90;;;;;;4128396;28;20035;-76
2021/10/28 05:42:20;;;;;;;69.75;33.40;;;6.90;99.90;;;;;;4128107;28;20038;-74
2021/10/28 05:44:20;;;;;;;80.88;33.83;;;6.90;99.90;;;;;;4119182;28;20487;-75
2021/10/28 05:46:21;;;;;;;85.07;34.83;;;6.90;99.90;;;;;;4127192;28;20034;-74
2021/10/28 05:48:22;;;;;;;80.13;36.70;;;6.80;99.90;;;;;;4129123;28;20483;-75
2021/10/28 05:50:24;;;;;;;83.22;35.92;;;6.80;99.90;;;;;;4127229;28;20060;-75
2021/10/28 05:52:24;;;;;;;90.50;36.95;;;6.70;99.90;;;;;;4140053;28;20049;-75
2021/10/28 05:54:25;;;;;;;79.28;35.40;;;6.70;99.90;;;;;;4128171;28;20034;-75
2021/10/28 05:56:26;;;;;;;79.18;34.03;;;6.70;99.90;;;;;;4128783;28;20557;-75
2021/10/28 05:58:27;;;;;;;81.20;34.42;;;6.70;99.90;;;;;;4126611;28;20390;-76
2021/10/28 06:00:27;;;;;;;70.97;33.67;;;6.60;99.90;;;;;;4130705;28;20019;-76
2021/10/28 06:02:28;;;;;;;83.63;36.72;;;6.60;99.90;;;;;;4128845;28;20034;-76
2021/10/28 06:04:29;;;;;;;77.28;34.03;;;6.60;99.90;;;;;;4128317;28;20037;-76
2021/10/28 06:06:29;;;;;;;76.68;34.03;;;6.60;99.90;;;;;;4125198;28;20044;-76
2021/10/28 06:08:31;;;;;;;80.53;35.58;;;6.70;99.90;;;;;;4129338;28;20044;-75
2021/10/28 06:10:32;;;;;;;77.75;35.03;;;6.60;99.90;;;;;;4127275;28;20482;-76
2021/10/28 06:12:37;;;;;;;77.20;33.95;;;6.60;99.90;;;;;;4124915;28;20113;-76
2021/10/28 06:14:38;;;;;;;76.18;33.85;;;6.60;99.90;;;;;;4127235;28;20097;-76
2021/10/28 06:16:42;;;;;;;80.30;34.90;;;6.60;99.90;;;;;;4125039;28;20042;-75
2021/10/28 06:18:43;;;;;;;80.75;35.40;;;6.70;99.90;;;;;;4128278;28;20031;-76
2021/10/28 06:20:44;;;;;;;78.55;35.65;;;6.70;99.90;;;;;;4128917;28;20081;-76
2021/10/28 06:22:45;;;;;;;81.43;34.78;;;6.70;99.90;;;;;;4127319;28;20109;-76
2021/10/28 06:24:46;;;;;;;82.72;32.78;;;6.70;99.90;;;;;;4129827;28;20030;-75
2021/10/28 06:26:46;;;;;;;77.70;33.53;;;6.60;99.90;;;;;;4114606;28;20116;-75
2021/10/28 06:28:47;;;;;;;76.07;34.25;;;6.60;99.90;;;;;;4126884;28;20053;-75
2021/10/28 06:30:48;;;;;;;79.32;35.83;;;6.60;99.90;;;;;;4127421;28;20077;-75
2021/10/28 06:32:56;;;;;;;69.57;33.58;;;6.60;99.90;;;;;;4125419;28;20809;-75
2021/10/28 06:34:59;;;;;;;69.72;32.67;;;6.50;99.90;;;;;;4127792;28;20038;-75
2021/10/28 06:37:04;;;;;;;78.30;33.65;;;6.50;99.90;;;;;;4128784;28;20411;-75
2021/10/28 06:39:05;;;;;;;74.47;32.92;;;6.60;99.90;;;;;;4127916;28;20049;-75
2021/10/28 06:41:06;;;;;;;79.13;33.58;;;6.60;99.90;;;;;;4128446;28;20057;-75
2021/10/28 06:43:07;;;;;;;79.88;33.83;;;6.50;99.90;;;;;;4128775;28;20038;-75
2021/10/28 06:45:08;;;;;;;75.13;33.67;;;6.50;99.90;;;;;;4123545;28;20045;-75
2021/10/28 06:47:09;;;;;;;79.47;34.65;;;6.50;99.90;;;;;;4141700;28;20034;-75
2021/10/28 06:49:10;;;;;;;77.00;34.25;;;6.50;99.90;;;;;;4126669;28;20027;-75
2021/10/28 06:51:12;;;;;;;76.95;36.97;;;6.50;99.90;;;;;;4128649;28;20122;-75
2021/10/28 06:55:24;;;;;;;78.13;34.92;;;6.60;99.90;;;;;;4128644;28;20038;-75
2021/10/28 07:02:20;;;;;;;83.03;34.85;;;6.60;99.90;;;;;;4120748;28;20049;-77
2021/10/28 07:04:21;;;;;;;81.72;34.60;;;6.60;99.90;;;;;;4127922;28;20046;-77
2021/10/28 07:06:23;;;;;;;83.85;36.13;;;6.60;99.90;;;;;;4128891;28;20034;-77
2021/10/28 07:08:24;;;;;;;80.50;34.70;;;6.60;99.90;;;;;;4130569;28;20129;-78
2021/10/28 07:10:25;;;;;;;79.53;33.85;;;6.60;99.90;;;;;;4128296;28;20375;-78
2021/10/28 07:14:37;;;;;;;87.03;37.25;;;6.60;99.90;;;;;;4132434;28;20042;-78
2021/10/28 07:16:42;;;;;;;78.22;35.38;;;6.70;99.90;;;;;;4131307;28;20022;-78
2021/10/28 07:18:51;;;;;;;89.05;38.78;;;6.80;99.90;;;;;;4127700;28;20082;-78
2021/10/28 07:30:11;;;;;;;85.25;36.45;;;6.90;99.90;;;;;;4119724;28;20104;-78
2021/10/28 07:34:33;;;;;;;74.45;35.70;;;7.00;99.90;;;;;;4131108;28;20026;-78
2021/10/28 08:17:58;;;;;;;85.85;35.60;;;8.00;99.90;;;;;;4129926;28;20100;-77
2021/10/28 08:20:05;;;;;;;74.70;34.47;;;8.00;99.90;;;;;;4130459;28;20038;-78
2021/10/28 08:22:15;;;;;;;80.43;34.83;;;8.00;99.90;;;;;;4130573;28;20379;-78
2021/10/28 08:29:06;;;;;;;70.68;33.97;;;8.30;99.90;;;;;;4130147;28;20057;-77
2021/10/28 08:31:07;;;;;;;71.22;31.67;;;8.40;99.90;;;;;;4129566;28;20042;-77
2021/10/28 08:33:08;;;;;;;62.33;31.48;;;8.50;99.90;;;;;;4129750;28;20038;-77
2021/10/28 08:35:09;;;;;;;69.35;31.75;;;8.50;99.90;;;;;;4130286;28;20469;-77
2021/10/28 08:37:14;;;;;;;67.05;32.20;;;8.60;99.90;;;;;;4127162;28;20505;-78
2021/10/28 08:39:15;;;;;;;62.33;31.13;;;8.70;99.90;;;;;;4130851;28;20027;-78
2021/10/28 08:41:18;;;;;;;67.60;31.80;;;8.80;99.90;;;;;;4128439;28;20038;-78
2021/10/28 08:43:21;;;;;;;69.22;31.20;;;8.90;99.90;;;;;;4129602;28;20444;-78
2021/10/28 08:45:21;;;;;;;65.40;31.52;;;9.00;99.90;;;;;;4128104;28;20034;-75
2021/10/28 08:47:25;;;;;;;65.90;29.83;;;9.10;99.90;;;;;;4126878;28;20712;-77
2021/10/28 08:49:32;;;;;;;57.67;29.42;;;9.10;99.90;;;;;;4128856;28;20490;-77
2021/10/28 08:56:03;;;;;;;55.35;29.00;;;9.40;99.90;;;;;;4129058;28;20030;-77
2021/10/28 09:23:57;;;;;;;42.85;23.35;;;10.50;99.90;;;;;;4128307;28;20231;-78
2021/10/28 09:26:14;;;;;;;44.83;25.70;;;10.50;99.90;;;;;;4127309;28;20031;-77
2021/10/28 09:28:36;;;;;;;40.72;25.63;;;10.70;99.90;;;;;;4126620;28;20490;-77
2021/10/28 09:32:51;;;;;;;42.55;24.38;;;10.90;99.90;;;;;;4129490;28;20034;-77
2021/10/28 09:45:00;;;;;;;33.45;23.13;;;12.90;99.90;;;;;;4126922;28;20036;-77
2021/10/28 09:47:17;;;;;;;35.70;22.42;;;13.30;99.90;;;;;;4127857;28;20041;-77
2021/10/28 09:51:33;;;;;;;31.33;21.15;;;13.80;99.90;;;;;;4127277;28;20046;-76
2021/10/28 09:59:08;;;;;;;22.90;18.33;;;13.90;99.90;;;;;;4128798;28;20533;-77
2021/10/28 10:01:32;;;;;;;22.35;19.00;;;14.10;99.90;;;;;;4128748;28;20022;-77
2021/10/28 10:03:37;;;;;;;26.38;19.02;;;14.30;99.90;;;;;;4127940;28;20046;-77
2021/10/28 10:05:38;;;;;;;21.75;17.48;;;14.50;99.90;;;;;;4125929;28;20022;-77
2021/10/28 10:07:40;;;;;;;25.23;18.60;;;14.70;99.90;;;;;;4126662;28;20038;-77
2021/10/28 10:09:41;;;;;;;27.55;18.75;;;15.10;99.90;;;;;;4128378;28;20030;-77
2021/10/28 10:11:42;;;;;;;21.92;16.80;;;15.30;99.90;;;;;;4126311;28;20042;-77
2021/10/28 10:13:45;;;;;;;20.70;14.77;;;15.40;99.90;;;;;;4129827;28;20377;-77
2021/10/28 10:15:46;;;;;;;15.73;13.85;;;15.50;99.90;;;;;;4129051;28;20148;-77
2021/10/28 10:17:53;;;;;;;20.55;14.35;;;15.40;99.90;;;;;;4128273;28;20034;-77
2021/10/28 10:19:56;;;;;;;20.13;14.88;;;15.50;99.90;;;;;;4126521;28;20627;-77
2021/10/28 10:21:59;;;;;;;18.35;14.95;;;15.80;99.90;;;;;;4129941;28;20034;-77
2021/10/28 10:29:19;;;;;;;17.25;14.48;;;16.60;99.90;;;;;;4130912;28;20027;-77
2021/10/28 11:03:14;;;;;;;15.75;12.45;;;17.50;99.90;;;;;;4129663;28;20065;-77
2021/10/28 11:21:08;;;;;;;13.63;10.95;;;18.70;99.90;;;;;;4132288;28;20394;-77
2021/10/28 11:28:04;;;;;;;15.80;11.68;;;18.80;99.90;;;;;;4131898;28;20061;-77
2021/10/28 11:30:47;;;;;;;17.75;11.73;;;18.80;99.90;;;;;;4129270;28;20042;-77
2021/10/28 11:32:52;;;;;;;14.18;12.27;;;18.90;99.90;;;;;;4130897;28;20046;-75
2021/10/28 12:01:47;;;;;;;14.70;10.80;;;20.10;99.90;;;;;;4131394;28;20081;-74
2021/10/28 12:25:41;;;;;;;17.23;10.43;;;19.90;99.90;;;;;;4119176;28;20073;-74
2021/10/28 12:47:45;;;;;;;19.42;10.57;;;20.10;99.90;;;;;;4116724;28;21668;-74
2021/10/28 12:50:08;;;;;;;16.42;11.38;;;20.40;99.90;;;;;;4128253;28;20137;-74
2021/10/28 12:52:33;;;;;;;15.52;11.20;;;20.40;99.90;;;;;;4129046;28;20113;-74
2021/10/28 12:57:05;;;;;;;13.15;11.45;;;20.80;99.90;;;;;;4126008;28;20066;-75
2021/10/28 13:04:20;;;;;;;12.55;10.75;;;21.10;99.90;;;;;;4120023;28;20019;-75
2021/10/28 13:50:43;;;;;;;19.25;10.82;;;20.40;99.90;;;;;;4125683;28;20462;-74
2021/10/28 14:31:38;;;;;;;16.08;11.75;;;16.70;99.90;;;;;;4131597;28;20087;-75
2021/10/28 14:38:22;;;;;;;14.70;10.68;;;16.90;99.90;;;;;;4131554;28;20526;-74
2021/10/28 15:40:16;;;;;;;11.38;6.50;;;15.20;99.90;;;;;;4131545;28;20026;-76
2021/10/28 16:01:44;;;;;;;19.58;8.40;;;13.80;99.90;;;;;;4130515;28;20491;-75
2021/10/28 16:22:19;;;;;;;13.85;8.95;;;12.50;99.90;;;;;;4127991;28;20065;-75
2021/10/28 16:24:27;;;;;;;13.20;9.00;;;12.50;99.90;;;;;;4124462;28;20026;-76
2021/10/28 16:26:32;;;;;;;18.70;8.80;;;12.50;99.90;;;;;;4124894;28;21788;-75
2021/10/28 16:28:33;;;;;;;15.90;8.95;;;12.40;99.90;;;;;;4130407;28;20462;-75
2021/10/28 16:30:34;;;;;;;16.50;10.07;;;12.30;99.90;;;;;;4131113;28;20041;-74
2021/10/28 16:32:35;;;;;;;14.20;10.38;;;12.20;99.90;;;;;;4130932;28;20034;-75
2021/10/28 16:34:36;;;;;;;12.45;10.55;;;12.20;99.90;;;;;;4130016;28;20062;-75
2021/10/28 16:36:37;;;;;;;13.93;9.65;;;12.00;99.90;;;;;;4125286;28;20031;-75
2021/10/28 16:38:38;;;;;;;17.45;10.95;;;12.00;99.90;;;;;;4141599;28;20039;-75
2021/10/28 16:40:40;;;;;;;13.80;9.93;;;11.80;99.90;;;;;;4117319;28;20025;-75
2021/10/28 16:42:40;;;;;;;11.80;9.32;;;11.70;99.90;;;;;;4144160;28;20042;-75
2021/10/28 16:44:42;;;;;;;13.75;10.25;;;11.50;99.90;;;;;;4116146;28;20022;-75
2021/10/28 16:46:43;;;;;;;14.60;10.75;;;11.30;99.90;;;;;;4129256;28;20709;-76
2021/10/28 16:48:44;;;;;;;12.82;9.93;;;11.10;99.90;;;;;;4117589;28;20085;-75
2021/10/28 16:50:45;;;;;;;11.68;9.95;;;11.00;99.90;;;;;;4128876;28;20066;-76
2021/10/28 16:52:46;;;;;;;14.10;10.38;;;10.90;99.90;;;;;;4129673;28;20022;-75
2021/10/28 16:54:46;;;;;;;13.00;9.75;;;10.70;99.90;;;;;;4128164;28;20030;-75
2021/10/28 16:56:47;;;;;;;13.20;9.55;;;10.60;99.90;;;;;;4115959;28;20045;-75
2021/10/28 16:58:48;;;;;;;12.48;10.15;;;10.50;99.90;;;;;;4141963;28;20501;-75
2021/10/28 17:00:49;;;;;;;16.67;9.98;;;10.40;99.90;;;;;;4126468;28;20031;-75
2021/10/28 17:02:50;;;;;;;13.73;12.15;;;10.30;99.90;;;;;;4129060;28;20040;-76
2021/10/28 17:04:51;;;;;;;18.55;11.30;;;10.30;99.90;;;;;;4131491;28;20121;-76
2021/10/28 17:06:52;;;;;;;13.95;10.63;;;10.10;99.90;;;;;;4125149;28;20089;-75
2021/10/28 17:08:56;;;;;;;12.43;11.05;;;10.10;99.90;;;;;;4130182;28;20033;-76
2021/10/28 17:10:58;;;;;;;14.32;11.27;;;10.00;99.90;;;;;;4122809;28;20026;-75
2021/10/28 17:12:59;;;;;;;14.63;12.07;;;9.90;99.90;;;;;;4126217;28;20026;-75
2021/10/28 17:15:00;;;;;;;18.50;12.68;;;9.90;99.90;;;;;;4127655;28;20493;-75
2021/10/28 17:17:00;;;;;;;19.80;12.82;;;10.00;99.90;;;;;;4128384;28;20038;-75
2021/10/28 17:19:01;;;;;;;16.17;12.13;;;10.00;99.90;;;;;;4127883;28;20109;-75
2021/10/28 17:21:05;;;;;;;25.10;14.10;;;10.00;99.90;;;;;;4127372;28;20411;-75
2021/10/28 17:23:09;;;;;;;19.25;14.85;;;9.90;99.90;;;;;;4127176;28;20022;-75
2021/10/28 17:25:18;;;;;;;18.77;13.73;;;9.80;99.90;;;;;;4129542;28;20061;-75
2021/10/28 17:27:20;;;;;;;20.75;14.43;;;9.70;99.90;;;;;;4114566;28;20446;-75
2021/10/28 17:29:20;;;;;;;21.77;15.45;;;9.70;99.90;;;;;;4139180;28;20567;-75
2021/10/28 17:31:21;;;;;;;21.95;15.63;;;9.60;99.90;;;;;;4125727;28;20034;-75
2021/10/28 17:33:22;;;;;;;20.95;14.85;;;9.60;99.90;;;;;;4128631;28;20061;-75
2021/10/28 17:35:23;;;;;;;24.48;16.35;;;9.60;99.90;;;;;;4130191;28;20386;-76
2021/10/28 17:37:24;;;;;;;21.17;15.00;;;9.70;99.90;;;;;;4128046;28;20046;-75
2021/10/28 17:39:27;;;;;;;23.42;16.77;;;9.80;99.90;;;;;;4127090;28;20071;-76
2021/10/28 17:41:27;;;;;;;20.92;16.48;;;9.90;99.90;;;;;;4126704;28;20058;-75
2021/10/28 17:43:30;;;;;;;21.10;16.90;;;10.10;99.90;;;;;;4129444;28;20480;-76
2021/10/28 17:45:36;;;;;;;27.27;17.40;;;10.10;99.90;;;;;;4126979;28;20042;-75
2021/10/28 17:47:36;;;;;;;23.27;15.02;;;10.10;99.90;;;;;;4129551;28;20377;-76
2021/10/28 17:49:37;;;;;;;24.67;16.63;;;10.10;99.90;;;;;;4125090;28;20066;-75
2021/10/28 17:51:38;;;;;;;21.77;16.30;;;10.10;99.90;;;;;;4128918;28;20034;-76
2021/10/28 17:53:40;;;;;;;26.80;17.10;;;10.10;99.90;;;;;;4128591;28;20594;-76
2021/10/28 17:55:40;;;;;;;20.58;16.77;;;10.10;99.90;;;;;;4126531;28;20050;-75
2021/10/28 17:57:44;;;;;;;22.00;16.98;;;10.10;99.90;;;;;;4128021;28;20055;-76
2021/10/28 17:59:45;;;;;;;22.73;16.98;;;10.10;99.90;;;;;;4128366;28;20137;-75
2021/10/28 18:01:46;;;;;;;26.42;17.90;;;10.10;99.90;;;;;;4128301;28;20038;-75
2021/10/28 18:03:47;;;;;;;22.85;16.52;;;10.10;99.90;;;;;;4141470;28;20367;-75
2021/10/28 18:05:48;;;;;;;22.25;16.40;;;10.10;99.90;;;;;;4128577;28;20042;-75
2021/10/28 18:07:49;;;;;;;26.38;18.80;;;10.10;99.90;;;;;;4129493;28;20043;-75
2021/10/28 18:09:50;;;;;;;25.80;17.00;;;10.10;99.90;;;;;;4116274;28;20489;-75
2021/10/28 18:12:00;;;;;;;20.67;16.27;;;10.10;99.90;;;;;;4124717;28;20039;-75
2021/10/28 18:14:09;;;;;;;23.20;17.27;;;10.00;99.90;;;;;;4128401;28;20611;-75
2021/10/28 18:16:09;;;;;;;23.02;16.85;;;10.10;99.90;;;;;;4126035;28;20114;-75
2021/10/28 18:18:10;;;;;;;23.33;17.25;;;10.00;99.90;;;;;;4143154;28;20030;-75
2021/10/28 18:20:11;;;;;;;23.00;16.75;;;10.00;99.90;;;;;;4126711;28;20481;-75
2021/10/28 18:22:13;;;;;;;20.88;14.95;;;10.00;99.90;;;;;;4128032;28;20035;-75
2021/10/28 18:24:16;;;;;;;20.73;16.45;;;10.00;99.90;;;;;;4125162;28;20038;-75
2021/10/28 18:26:19;;;;;;;21.05;15.95;;;10.00;99.90;;;;;;4122004;28;20475;-75
2021/10/28 18:28:20;;;;;;;18.77;16.13;;;10.00;99.90;;;;;;4128964;28;20069;-76
2021/10/28 18:30:21;;;;;;;23.45;16.45;;;10.00;99.90;;;;;;4127343;28;25111;-75
2021/10/28 18:32:21;;;;;;;23.95;18.20;;;9.90;99.90;;;;;;4128825;28;20046;-75
2021/10/28 18:34:22;;;;;;;22.83;16.95;;;9.90;99.90;;;;;;4127190;28;20461;-75
2021/10/28 18:36:28;;;;;;;20.15;15.45;;;9.80;99.90;;;;;;4119870;28;20034;-75
2021/10/28 18:38:30;;;;;;;22.42;16.42;;;9.90;99.90;;;;;;4126267;28;20108;-76
2021/10/28 18:40:31;;;;;;;20.30;16.30;;;9.90;99.90;;;;;;4125339;28;20042;-75
2021/10/28 18:42:32;;;;;;;21.08;14.75;;;9.90;99.90;;;;;;4129298;28;20043;-75